• Join FlightAware (Why Join?)
  • Login
  • US Flag GB Flag 
11:37 EDT


 

Airport Tracker/Info


-or-


 

Live Flight TrackerFlight Track Log ✈ SWA554 ✈ 07-Apr-2013 ✈ KMKE - KBWI

Flight Track Log - Related Links

Times and Time Zones

All times are in EDT time to prevent confusion due to time zone crossing. See the SWA554 flight status page for this flight to view local times or setup timezone preferences in your user account.

Time Position Orientation Groundspeed Altitude Reporting Facility
EDT Latitude Longitude Course Direction KTS MPH feet Rate Location/Type
14:39 42.9667 -87.8833 North 163 188 1,500  Level KMKE
14:41 43.0333 -87.8725 North 216 249 4,800 2,400 Climbing Chicago Center
14:42 43.0567 -87.7917 68° East 291 335 7,300 2,760 Climbing Chicago Center
14:43 42.9811 -87.7658 166° South 293 337 10,600 2,880 Climbing Chicago Center
14:44 42.8803 -87.7669 180° South 312 359 13,300 2,580 Climbing Chicago Center
14:45 42.7831 -87.7669 180° South 339 390 16,000 2,460 Climbing Chicago Center
14:46 42.6867 -87.7264 163° South 360 414 18,400 2,220 Climbing Chicago Center
14:47 42.5844 -87.6883 165° South 371 427 20,600 2,040 Climbing Chicago Center
14:48 42.4817 -87.6500 165° South 383 441 22,700 1,920 Climbing Chicago Center
14:49 42.3733 -87.6100 165° South 401 461 24,600 1,740 Climbing Chicago Center
14:50 42.2636 -87.5697 165° South 409 471 26,300 1,740 Climbing Chicago Center
14:51 42.1272 -87.5178 164° South 423 487 28,200 1,440 Climbing Chicago Center
14:52 42.0164 -87.4522 156° South 449 517 29,300 1,380 Climbing Chicago Center
14:53 41.9625 -87.2894 114° Southeast 489 563 31,100 1,560 Climbing Chicago Center
14:54 41.9439 -87.1122 98° East 481 554 32,600 1,200 Climbing Chicago Center
14:55 41.9250 -86.9336 98° East 485 558 33,700 1,020 Climbing Chicago Center
14:56 41.9175 -86.7542 93° East 488 562 34,800 1,200 Climbing Chicago Center
14:57 41.9094 -86.5442 93° East 483 556 36,300 1,020 Climbing Chicago Center
14:58 41.8883 -86.3706 99° East 475 547 37,000 300 Climbing Chicago Center
14:59 41.8697 -86.1933 98° East 478 550 37,000  Level Chicago Center
15:00 41.8497 -86.0164 99° East 482 555 37,000  Level Chicago Center
15:02 41.8306 -85.8372 98° East 484 557 37,000  Level Chicago Center
15:03 41.8108 -85.6578 98° East 484 557 37,000  Level Chicago Center
15:04 41.7864 -85.4400 98° East 483 556 37,000  Level Chicago Center
15:05 41.7642 -85.2569 99° East 485 558 37,000  Level Chicago Center
15:06 41.7469 -85.1125 99° East 485 558 37,000  Level Chicago Center
15:06 41.7303 -84.9631 98° East 482 555 37,000  Level Cleveland Center
15:07 41.7100 -84.7808 98° East 482 555 37,000  Level Cleveland Center
15:08 41.6872 -84.6014 100° East 487 560 37,000  Level Cleveland Center
15:09 41.6642 -84.4219 100° East 487 560 37,000  Level Cleveland Center
15:10 41.6461 -84.2792 100° East 487 560 37,000  Level Cleveland Center
15:11 41.6189 -84.0831 100° East 487 560 37,000  Level Cleveland Center
15:12 41.5950 -83.9042 100° East 487 560 37,000  Level Cleveland Center
15:13 41.5708 -83.7281 100° East 487 560 37,000  Level Cleveland Center
15:14 41.5483 -83.5492 99° East 487 560 37,000  Level Cleveland Center
15:15 41.5236 -83.3706 100° East 487 560 37,000  Level Cleveland Center
15:16 41.4944 -83.1975 103° East 487 560 37,000  Level Cleveland Center
15:17 41.4161 -83.0586 127° Southeast 474 545 37,000  Level Cleveland Center
15:18 41.3336 -82.9200 128° Southeast 469 540 37,000  Level Cleveland Center
15:19 41.2572 -82.7789 126° Southeast 474 545 37,000  Level Cleveland Center
15:20 41.1847 -82.6331 123° Southeast 474 545 37,000  Level Cleveland Center
15:21 41.1125 -82.4847 123° Southeast 480 552 37,000  Level Cleveland Center
15:22 41.0317 -82.3228 123° Southeast 480 552 37,000  Level Cleveland Center
15:23 40.9586 -82.1722 123° Southeast 480 552 37,000  Level Cleveland Center
15:24 40.8836 -82.0250 124° Southeast 485 558 37,000  Level Cleveland Center
15:25 40.8103 -81.8753 123° Southeast 485 558 37,000  Level Cleveland Center
15:26 40.7347 -81.7311 125° Southeast 485 558 37,000  Level Cleveland Center
15:27 40.6611 -81.5822 123° Southeast 485 558 37,000  Level Cleveland Center
15:28 40.5872 -81.4361 124° Southeast 490 564 37,000  Level Cleveland Center
15:29 40.5236 -81.3014 122° Southeast 485 558 37,000  Level Cleveland Center
15:30 40.4492 -81.1561 124° Southeast 485 558 37,000  Level Cleveland Center
15:31 40.3728 -81.0108 125° Southeast 485 558 37,000  Level Cleveland Center
15:32 40.3003 -80.8689 124° Southeast 479 551 37,000 -540 Level Cleveland Center
15:33 40.2233 -80.7272 125° Southeast 479 551 36,000 -960 Descending Cleveland Center
15:34 40.1506 -80.5803 123° Southeast 479 551 35,100 -960 Descending Cleveland Center
15:35 40.0733 -80.4339 125° Southeast 484 557 34,100 -960 Descending Cleveland Center
15:36 39.9958 -80.2903 125° Southeast 484 557 33,200 -600 Descending Cleveland Center
15:37 39.9203 -80.1444 124° Southeast 484 557 33,000 -120 Descending Cleveland Center
15:38 39.8508 -79.9964 121° Southeast 489 563 33,000  Level Cleveland Center
15:39 39.8122 -79.7994 104° East 488 562 33,000 -180 Level Cleveland Center
15:40 39.7775 -79.6242 104° East 500 575 32,700 -1,560 Descending Cleveland Center
15:41 39.7383 -79.4464 106° East 500 575 29,900 -2,640 Descending Cleveland Center
15:42 39.7033 -79.2772 105° East 493 567 27,500 -2,280 Descending Cleveland Center
15:43 39.6886 -79.2050 105° East 491 565 26,600 -1,740 Descending Washington Center
15:44 39.6539 -79.0414 105° East 464 534 25,000 -840 Descending Washington Center
15:45 39.6161 -78.9050 110° East 452 520 25,000 -300 Level Washington Center
15:46 39.5828 -78.7525 106° East 445 512 24,400 -1,560 Descending Washington Center
15:47 39.5492 -78.6006 106° East 445 512 21,900 -2,400 Descending Washington Center
15:48 39.5172 -78.4539 106° East 440 506 19,700 -2,100 Descending Washington Center
15:49 39.4872 -78.3103 105° East 428 493 17,700 -2,100 Descending Washington Center
15:50 39.4547 -78.1744 107° East 410 472 15,500 -1,380 Descending Washington Center
15:51 39.4492 -78.0400 93° East 389 448 15,000 -300 Descending Washington Center
15:52 39.4478 -77.9056 91° East 378 435 15,000  Level Washington Center
15:53 39.4461 -77.7683 91° East 378 435 15,000 -420 Level Washington Center
15:54 39.4483 -77.6342 89° East 378 435 14,200 -1,380 Descending Washington Center
15:55 39.4464 -77.4969 91° East 378 435 12,300 -1,620 Descending Washington Center
15:56 39.4464 -77.3733 90° East 371 427 11,000 -900 Descending Washington Center
15:56 39.4500 -77.3000 86° East 328 377 11,000  Level Potomac TRACON
15:57 39.4667 -77.1833 79° East 323 372 11,000 -720 Level Potomac TRACON
15:58 39.4833 -77.0667 79° East 334 384 9,600 -1,200 Descending Potomac TRACON
15:59 39.4833 -76.9500 90° East 318 366 8,600 -1,260 Descending Potomac TRACON
16:00 39.5000 -76.8333 79° East 304 350 7,100 -1,500 Descending Potomac TRACON
16:01 39.4500 -76.7500 128° Southeast 293 337 5,600 -1,200 Descending Potomac TRACON
16:02 39.4000 -76.7167 153° Southeast 263 303 4,900 -840 Descending Potomac TRACON
16:03 39.3500 -76.7667 218° Southwest 216 249 4,100 -840 Descending Potomac TRACON
16:04 39.3000 -76.8000 207° Southwest 211 243 3,300 -780 Descending Potomac TRACON
16:05 39.2500 -76.8000 180° South 194 223 2,600 -720 Descending Potomac TRACON
16:06 39.2000 -76.8000 180° South 172 198 2,000 -720 Descending Potomac TRACON
16:07 39.1833 -76.7500 113° Southeast 151 174 1,200 -780 Descending Potomac TRACON
16:08 39.1833 -76.7000 90° East 146 168 400 -840 Descending Potomac TRACON
16:10 39.1667 -76.6667 157° South  Level FlightAware Approximate
16:17 39.1754 -76.6683 157° South  Level Estimated
16:18 39.1754 -76.6683 157° South  Level Estimated